Weather at Grohnke Field

Public forecast

Using degrees Fahrenheit for public forecast. Weather courtesy of forecast.io.

Closest aviation weather report (METAR) to Grohnke Field

Closest report is Mora Municipal Airport, 9.5 nm (17.6 km) N.

2024/07/25 09:35 (retrieved 12 minutes ago)

KJMR 250935Z AUTO 00000KT 5SM BR CLR 10/10 A3028 RMK AO2

Closest aviation forecast (TAF) to Grohnke Field

Closest forecast is Saint Cloud Regional Airport, 34.2 nm (63.3 km) WSW.

2024/07/25 06:22 (retrieved 3 hours ago)

TAF KSTC 250520Z 2506/2606 11003KT P6SM FEW200 FM251400 15008KT P6SM SKC FM260000 14005KT P6SM SKC